Time;durP1;ratioP1;P1;durP2;ratioP2;P2;SDS_P1;SDS_P2;PMS_P1;PMS_P2;Temp;Humidity;BMP_temperature;BMP_pressure;BME280_temperature;BME280_humidity;BME280_pressure;Samples;Min_cycle;Max_cycle;Signal;HPM_P1;HPM_P2
2023/04/20 00:00:10;;;;;;;37.08;8.63;;;;;;;10.58;100.00;99333.73;1804983;79;21985;-84
2023/04/20 00:03:19;;;;;;;34.08;9.90;;;;;;;10.92;100.00;99331.02;1803924;79;21724;-79
2023/04/20 00:06:24;;;;;;;41.18;9.15;;;;;;;10.97;100.00;99339.47;1800769;79;21204;-88
2023/04/20 00:09:30;;;;;;;47.27;9.28;;;;;;;10.59;100.00;99339.03;1802004;79;21150;-79
2023/04/20 00:12:35;;;;;;;58.25;9.93;;;;;;;10.63;100.00;99344.42;1803221;79;21142;-88
2023/04/20 00:15:41;;;;;;;39.50;9.65;;;;;;;10.56;100.00;99341.30;1795859;79;21141;-79
2023/04/20 00:18:47;;;;;;;36.13;9.93;;;;;;;10.83;100.00;99343.70;1805038;79;21176;-88
2023/04/20 00:21:54;;;;;;;32.20;11.25;;;;;;;10.57;100.00;99351.19;1802034;79;21738;-79
2023/04/20 00:24:54;;;;;;;46.33;9.63;;;;;;;10.60;100.00;99340.71;1802716;79;21133;-88
2023/04/20 00:28:01;;;;;;;44.45;9.25;;;;;;;10.52;100.00;99333.18;1802880;79;21146;-88
2023/04/20 00:31:08;;;;;;;29.27;8.95;;;;;;;10.51;100.00;99335.59;1800997;79;21138;-82
2023/04/20 00:34:13;;;;;;;36.45;8.75;;;;;;;10.47;100.00;99332.41;1805127;78;21174;-79
2023/04/20 00:37:18;;;;;;;35.78;9.68;;;;;;;10.51;100.00;99325.50;1804071;79;21157;-79
2023/04/20 00:40:24;;;;;;;40.98;9.78;;;;;;;10.54;100.00;99335.17;1801444;79;21131;-79
2023/04/20 00:43:30;;;;;;;39.33;8.38;;;;;;;10.46;100.00;99327.47;1801549;79;21165;-79
2023/04/20 00:46:36;;;;;;;46.10;9.33;;;;;;;10.36;100.00;99332.97;1802559;78;21192;-79
2023/04/20 00:49:41;;;;;;;33.42;9.05;;;;;;;10.36;100.00;99321.51;1803866;79;21142;-79
2023/04/20 00:52:48;;;;;;;48.35;9.33;;;;;;;10.33;100.00;99320.53;1801150;79;21146;-88
2023/04/20 00:55:53;;;;;;;42.70;8.45;;;;;;;10.29;100.00;99321.13;1798357;79;21154;-79
2023/04/20 00:58:58;;;;;;;28.65;8.83;;;;;;;10.35;100.00;99308.89;1804706;79;21182;-79
2023/04/20 01:02:04;;;;;;;35.92;8.73;;;;;;;10.40;100.00;99305.03;1800156;79;21150;-78
2023/04/20 01:05:10;;;;;;;43.78;9.78;;;;;;;10.40;100.00;99309.14;1805196;79;21133;-79
2023/04/20 01:08:15;;;;;;;53.78;12.13;;;;;;;10.52;100.00;99297.11;1803809;79;21165;-88
2023/04/20 01:11:19;;;;;;;40.65;10.32;;;;;;;10.43;100.00;99290.95;1804833;79;21137;-79
2023/04/20 01:14:25;;;;;;;34.88;9.95;;;;;;;10.44;100.00;99297.25;1805257;79;21117;-79
2023/04/20 01:17:29;;;;;;;51.08;10.72;;;;;;;10.52;100.00;99294.38;1798109;79;21170;-89
2023/04/20 01:20:34;;;;;;;41.77;11.25;;;;;;;10.41;100.00;99290.31;1807350;79;21142;-79
2023/04/20 01:23:44;;;;;;;54.50;10.43;;;;;;;10.56;100.00;99279.78;1804660;79;21146;-89
2023/04/20 01:26:43;;;;;;;38.02;10.43;;;;;;;10.61;100.00;99274.55;1801170;79;21193;-79
2023/04/20 01:29:49;;;;;;;39.58;10.50;;;;;;;10.50;100.00;99263.67;1804482;79;21123;-80
2023/04/20 01:32:56;;;;;;;43.05;11.20;;;;;;;10.42;100.00;99270.66;1799894;79;21146;-79
2023/04/20 01:36:01;;;;;;;46.20;12.13;;;;;;;10.51;100.00;99267.24;1800728;79;21624;-88
2023/04/20 01:39:08;;;;;;;43.00;12.18;;;;;;;10.53;100.00;99260.51;1800696;79;21168;-89
2023/04/20 01:42:08;;;;;;;52.78;12.95;;;;;;;10.60;100.00;99257.83;1805169;79;21133;-80
2023/04/20 01:45:07;;;;;;;54.95;13.15;;;;;;;10.47;100.00;99262.17;1805294;79;21117;-87
2023/04/20 01:48:13;;;;;;;53.00;13.98;;;;;;;10.61;100.00;99260.36;1800580;79;21738;-89
2023/04/20 01:51:20;;;;;;;64.07;13.70;;;;;;;10.61;100.00;99251.31;1800885;79;21131;-80
2023/04/20 01:54:25;;;;;;;47.08;13.18;;;;;;;10.35;100.00;99255.59;1806440;79;21122;-78
2023/04/20 01:57:31;;;;;;;54.75;14.83;;;;;;;10.37;100.00;99265.78;1803152;79;21149;-78
2023/04/20 02:00:36;;;;;;;53.68;13.45;;;;;;;10.67;100.00;99268.27;1804992;79;21138;-88
2023/04/20 02:03:42;;;;;;;67.25;16.23;;;;;;;10.66;100.00;99265.22;1805441;79;21193;-87
2023/04/20 02:06:49;;;;;;;78.50;15.40;;;;;;;10.56;100.00;99257.91;1806911;79;21141;-78
2023/04/20 02:09:56;;;;;;;55.20;14.83;;;;;;;10.67;100.00;99255.96;1803578;79;21184;-78
2023/04/20 02:13:02;;;;;;;84.40;15.70;;;;;;;10.61;100.00;99256.78;1800240;79;21121;-89
2023/04/20 02:16:09;;;;;;;57.93;15.55;;;;;;;10.58;100.00;99253.91;1804201;79;21143;-78
2023/04/20 02:19:15;;;;;;;65.20;16.90;;;;;;;10.59;100.00;99239.75;1800752;79;21119;-78
2023/04/20 02:22:21;;;;;;;53.52;15.08;;;;;;;10.77;100.00;99234.55;1803639;79;21128;-88
2023/04/20 02:25:27;;;;;;;71.77;15.83;;;;;;;10.71;100.00;99232.11;1808235;79;21142;-82
2023/04/20 02:28:34;;;;;;;56.33;17.23;;;;;;;10.74;100.00;99226.24;1800956;79;21142;-78
2023/04/20 02:31:41;;;;;;;62.00;15.60;;;;;;;10.78;100.00;99221.22;1804370;79;21172;-88
2023/04/20 02:34:47;;;;;;;74.05;17.07;;;;;;;10.86;100.00;99222.38;1800588;79;21662;-80
2023/04/20 02:37:56;;;;;;;56.77;14.98;;;;;;;10.86;100.00;99224.28;1813617;78;21634;-88
2023/04/20 02:41:02;;;;;;;69.62;16.12;;;;;;;10.76;100.00;99230.13;1812836;78;21154;-89
2023/04/20 02:44:08;;;;;;;61.30;15.60;;;;;;;10.92;100.00;99228.42;1813200;78;21185;-78
2023/04/20 02:47:14;;;;;;;71.37;17.92;;;;;;;10.96;100.00;99231.08;1813721;78;21144;-79
2023/04/20 02:50:19;;;;;;;77.97;16.25;;;;;;;10.77;100.00;99231.81;1814649;78;21146;-88
2023/04/20 02:53:20;;;;;;;69.90;19.10;;;;;;;10.76;100.00;99230.13;1814629;78;21184;-88
2023/04/20 02:56:42;;;;;;;88.03;20.35;;;;;;;10.83;100.00;99233.75;1812584;78;21158;-88
2023/04/20 02:59:47;;;;;;;82.80;20.80;;;;;;;10.79;100.00;99235.20;1812138;78;21110;-89
2023/04/20 03:02:55;;;;;;;84.62;20.15;;;;;;;10.95;100.00;99232.09;1810736;78;21160;-79
2023/04/20 03:06:00;;;;;;;90.42;19.05;;;;;;;10.68;100.00;99231.66;1811856;78;21120;-79
2023/04/20 03:09:08;;;;;;;72.95;19.87;;;;;;;10.71;100.00;99228.00;1811741;78;21714;-81
2023/04/20 03:12:25;;;;;;;83.10;19.12;;;;;;;10.83;100.00;99233.75;1815471;78;21152;-79
2023/04/20 03:15:42;;;;;;;92.62;23.60;;;;;;;10.62;100.00;99227.86;1813743;78;21157;-85
2023/04/20 03:19:02;;;;;;;;;;;;;;;10.85;100.00;99230.27;1818636;78;21182;-78
2023/04/20 03:22:07;;;;;;;85.28;20.10;;;;;;;10.95;100.00;99234.83;1812263;78;20606;-78
2023/04/20 03:25:15;;;;;;;74.50;20.88;;;;;;;10.65;100.00;99232.09;1814093;78;21142;-87
2023/04/20 03:28:25;;;;;;;78.90;20.43;;;;;;;10.53;100.00;99226.33;1815024;78;21108;-89
2023/04/20 03:31:30;;;;;;;92.42;21.07;;;;;;;10.65;100.00;99227.98;1813350;78;21141;-88
2023/04/20 03:34:35;;;;;;;86.22;21.05;;;;;;;10.67;100.00;99232.72;1813461;78;21122;-88
2023/04/20 03:37:44;;;;;;;71.22;19.40;;;;;;;10.61;100.00;99232.17;1824333;77;21145;-79
2023/04/20 03:40:50;;;;;;;90.77;21.70;;;;;;;10.68;100.00;99224.83;1832628;77;21185;-82
2023/04/20 03:43:55;;;;;;;76.05;20.70;;;;;;;10.60;100.00;99229.13;1833947;77;22035;-87
2023/04/20 03:47:01;;;;;;;72.30;21.07;;;;;;;10.95;100.00;99236.20;1831345;77;21146;-79
2023/04/20 03:50:07;;;;;;;68.40;20.15;;;;;;;10.99;100.00;99232.54;1832336;77;21734;-79
2023/04/20 03:53:13;;;;;;;70.45;21.70;;;;;;;10.94;100.00;99224.94;1833127;77;21150;-78
2023/04/20 03:56:21;;;;;;;70.67;21.20;;;;;;;10.94;100.00;99226.31;1833495;77;21129;-77
2023/04/20 03:59:27;;;;;;;72.72;21.37;;;;;;;11.05;100.00;99228.97;1831089;77;21141;-84
2023/04/20 04:02:27;;;;;;;55.12;18.87;;;;;;;10.98;100.00;99234.44;1835868;77;21152;-92
2023/04/20 04:05:35;;;;;;;70.40;21.97;;;;;;;11.05;100.00;99236.34;1834549;77;21686;-77
2023/04/20 04:08:41;;;;;;;63.68;22.82;;;;;;;11.21;100.00;99233.25;1837595;77;21142;-83
2023/04/20 04:11:48;;;;;;;52.67;20.05;;;;;;;11.06;100.00;99228.47;1831571;77;21682;-79
2023/04/20 04:14:55;;;;;;;43.95;19.30;;;;;;;11.31;100.00;99232.32;1833692;77;21139;-91
2023/04/20 04:18:03;;;;;;;66.28;21.30;;;;;;;11.04;100.00;99229.19;1836444;77;21158;-91
2023/04/20 04:21:10;;;;;;;49.13;20.35;;;;;;;10.96;100.00;99232.94;1831561;77;21142;-92
2023/04/20 04:24:17;;;;;;;50.98;19.12;;;;;;;10.97;100.00;99230.02;1832740;77;21145;-77
2023/04/20 04:27:28;;;;;;;42.80;19.70;;;;;;;10.90;100.00;99220.92;1835724;77;21812;-92
2023/04/20 04:30:32;;;;;;;38.48;17.42;;;;;;;10.70;100.00;99220.86;1831882;77;21140;-78
2023/04/20 04:33:33;;;;;;;44.23;18.87;;;;;;;10.62;100.00;99217.45;1832031;77;21148;-82
2023/04/20 04:36:39;;;;;;;41.90;16.73;;;;;;;10.69;100.00;99222.44;1832860;77;21570;-78
2023/04/20 04:39:40;;;;;;;31.48;16.17;;;;;;;10.82;100.00;99219.77;1802295;77;21446;-78
2023/04/20 04:42:51;;;;;;;38.90;17.92;;;;;;;10.69;100.00;99216.44;1805034;79;21154;-92
2023/04/20 04:45:57;;;;;;;29.55;16.12;;;;;;;10.92;100.00;99220.22;1800425;79;21182;-90
2023/04/20 04:49:03;;;;;;;29.98;15.65;;;;;;;10.79;100.00;99224.27;1800825;79;21744;-92
2023/04/20 04:52:08;;;;;;;33.28;16.65;;;;;;;10.86;100.00;99218.80;1799302;79;21185;-78
2023/04/20 04:55:14;;;;;;;28.92;15.03;;;;;;;10.96;100.00;99220.12;1799594;79;21156;-92
2023/04/20 04:58:20;;;;;;;28.27;13.68;;;;;;;10.96;100.00;99207.81;1800410;79;21784;-78
2023/04/20 05:01:26;;;;;;;25.82;13.78;;;;;;;11.05;100.00;99218.55;1801221;78;21132;-93
2023/04/20 05:04:25;;;;;;;23.07;12.50;;;;;;;11.21;100.00;99212.72;1799167;79;21138;-92
2023/04/20 05:07:31;;;;;;;27.32;12.95;;;;;;;11.00;100.00;99215.91;1804659;79;21176;-78
2023/04/20 05:10:38;;;;;;;20.70;11.28;;;;;;;11.09;100.00;99211.09;1804070;79;21168;-92
2023/04/20 05:13:44;;;;;;;14.83;11.00;;;;;;;11.11;100.00;99220.48;1794767;79;21178;-91
2023/04/20 05:16:51;;;;;;;22.65;11.35;;;;;;;11.10;100.00;99221.52;1803289;79;21137;-91
2023/04/20 05:19:57;;;;;;;20.82;10.50;;;;;;;11.12;100.00;99223.53;1809851;79;21185;-91
2023/04/20 05:23:03;;;;;;;17.55;10.58;;;;;;;11.15;100.00;99225.84;1801254;79;21150;-92
2023/04/20 05:26:08;;;;;;;17.15;8.93;;;;;;;11.04;100.00;99230.55;1798119;77;21164;-78
2023/04/20 05:29:12;;;;;;;17.25;8.23;;;;;;;11.07;100.00;99228.79;1803627;79;21133;-79
2023/04/20 05:32:18;;;;;;;15.90;9.25;;;;;;;11.00;100.00;99226.02;1796047;77;21187;-79
2023/04/20 05:35:23;;;;;;;11.05;7.90;;;;;;;11.05;100.00;99226.77;1803704;79;21114;-78
2023/04/20 05:38:29;;;;;;;13.80;7.80;;;;;;;11.10;100.00;99226.45;1797760;77;21137;-92
2023/04/20 05:41:34;;;;;;;12.07;6.08;;;;;;;11.27;100.00;99225.56;1805571;78;21822;-78
2023/04/20 05:44:40;;;;;;;9.75;5.92;;;;;;;11.33;100.00;99230.73;1801065;77;21165;-78
2023/04/20 05:47:46;;;;;;;8.43;4.80;;;;;;;11.39;100.00;99234.88;1793601;78;21222;-78
2023/04/20 05:50:51;;;;;;;7.33;4.72;;;;;;;11.22;100.00;99226.72;1793105;79;21156;-82
2023/04/20 05:53:46;;;;;;;12.33;3.98;;;;;;;11.17;100.00;99227.87;1796345;78;21153;-91
2023/04/20 05:56:50;;;;;;;6.83;4.62;;;;;;;11.12;100.00;99226.27;1800025;78;21203;-77
2023/04/20 05:59:56;;;;;;;7.70;4.50;;;;;;;11.19;100.00;99227.12;1806107;79;21139;-77
2023/04/20 06:03:04;;;;;;;11.10;4.97;;;;;;;11.16;100.00;99227.55;1806289;76;21204;-92
2023/04/20 06:06:10;;;;;;;7.92;4.72;;;;;;;11.16;100.00;99231.66;1804055;78;21158;-88
2023/04/20 06:09:17;;;;;;;6.45;5.00;;;;;;;11.02;100.00;99229.41;1806512;78;21190;-91
2023/04/20 06:12:23;;;;;;;11.33;5.78;;;;;;;11.03;100.00;99232.98;1807668;79;21159;-78
2023/04/20 06:15:28;;;;;;;10.58;6.30;;;;;;;11.15;100.00;99232.69;1804369;79;21146;-77
2023/04/20 06:18:27;;;;;;;15.30;6.03;;;;;;;11.46;100.00;99236.23;1806397;77;21275;-77
2023/04/20 06:21:33;;;;;;;16.95;7.17;;;;;;;11.24;100.00;99232.81;1801795;79;21171;-77
2023/04/20 06:24:41;;;;;;;12.58;5.72;;;;;;;11.25;100.00;99234.53;1797211;79;21140;-91
2023/04/20 06:27:46;;;;;;;12.23;6.58;;;;;;;11.23;100.00;99236.08;1797821;79;21139;-77
2023/04/20 06:30:52;;;;;;;20.68;7.12;;;;;;;11.25;100.00;99242.73;1801849;76;21137;-91
2023/04/20 06:33:57;;;;;;;12.00;6.75;;;;;;;11.19;100.00;99236.70;1811522;78;21168;-78
2023/04/20 06:37:03;;;;;;;15.28;7.42;;;;;;;11.16;100.00;99233.03;1799973;79;21743;-90
2023/04/20 06:40:09;;;;;;;15.10;6.97;;;;;;;11.23;100.00;99237.45;1801838;78;21153;-92
2023/04/20 06:43:14;;;;;;;20.08;7.37;;;;;;;11.30;100.00;99234.75;1798622;76;21211;-78
2023/04/20 06:46:19;;;;;;;12.58;7.15;;;;;;;11.34;100.00;99234.66;1799181;79;21125;-77
2023/04/20 06:49:25;;;;;;;17.60;7.12;;;;;;;11.16;100.00;99229.77;1810471;79;21121;-92
2023/04/20 06:52:25;;;;;;;18.37;7.12;;;;;;;11.28;100.00;99225.04;1807089;79;21170;-92
2023/04/20 06:55:18;;;;;;;25.50;7.75;;;;;;;11.33;100.00;99228.84;1796761;79;21711;-77
2023/04/20 06:58:04;;;;;;;15.70;6.80;;;;;;;11.29;100.00;99224.82;1807529;79;21117;-78
2023/04/20 07:00:56;;;;;;;15.80;6.22;;;;;;;11.49;100.00;99222.14;1799741;79;21145;-78
2023/04/20 07:03:42;;;;;;;12.53;5.70;;;;;;;11.49;100.00;99220.77;1812941;76;21598;-91
2023/04/20 07:06:35;;;;;;;18.05;5.40;;;;;;;11.48;100.00;99226.78;1804824;79;21776;-82
2023/04/20 07:09:40;;;;;;;12.07;5.08;;;;;;;11.58;100.00;99232.38;1801656;79;21139;-92
2023/04/20 07:12:47;;;;;;;14.80;5.55;;;;;;;11.62;100.00;99229.02;1808033;79;21156;-79
2023/04/20 07:15:53;;;;;;;10.65;3.72;;;;;;;11.52;100.00;99223.91;1813380;76;21145;-92
2023/04/20 07:18:59;;;;;;;12.58;4.00;;;;;;;11.61;100.00;99218.24;1807963;78;21164;-78
2023/04/20 07:22:04;;;;;;;10.68;4.25;;;;;;;11.76;100.00;99214.77;1807019;79;21172;-78
2023/04/20 07:25:12;;;;;;;7.90;3.83;;;;;;;11.89;100.00;99217.54;1812523;79;21148;-78
2023/04/20 07:28:18;;;;;;;7.22;3.30;;;;;;;12.01;100.00;99215.86;1809225;79;21188;-91
2023/04/20 07:31:24;;;;;;;10.55;3.20;;;;;;;12.05;100.00;99215.45;1806849;79;21705;-92
2023/04/20 07:34:31;;;;;;;10.28;2.90;;;;;;;11.97;100.00;99210.48;1803620;79;21745;-90
2023/04/20 07:37:37;;;;;;;7.45;2.75;;;;;;;12.20;100.00;99203.19;1805075;79;21170;-91
2023/04/20 07:40:42;;;;;;;5.62;2.15;;;;;;;12.31;100.00;99201.67;1800414;78;21189;-90
2023/04/20 07:43:49;;;;;;;6.22;2.52;;;;;;;12.29;100.00;99207.92;1820632;78;21147;-77
2023/04/20 07:46:56;;;;;;;7.55;2.50;;;;;;;12.68;100.00;99208.32;1815554;78;21174;-77
2023/04/20 07:50:02;;;;;;;7.35;2.67;;;;;;;12.59;100.00;99208.78;1805959;78;21199;-90
2023/04/20 07:53:09;;;;;;;5.72;2.33;;;;;;;12.72;100.00;99206.00;1812921;78;21136;-90
2023/04/20 07:56:14;;;;;;;9.75;2.55;;;;;;;12.99;100.00;99206.73;1814879;76;21685;-90
2023/04/20 07:59:19;;;;;;;6.80;2.22;;;;;;;13.15;100.00;99210.33;1802158;76;21736;-90
2023/04/20 08:02:25;;;;;;;8.83;2.20;;;;;;;13.22;100.00;99202.06;1817295;76;21151;-90
2023/04/20 08:05:30;;;;;;;5.78;1.95;;;;;;;13.27;100.00;99203.66;1805113;78;21584;-78
2023/04/20 08:08:36;;;;;;;6.95;2.20;;;;;;;13.39;100.00;99207.36;1813862;76;21210;-89
2023/04/20 08:11:45;;;;;;;10.60;2.40;;;;;;;13.57;100.00;99203.86;1843264;76;21161;-88
2023/04/20 08:14:50;;;;;;;5.42;2.12;;;;;;;13.83;100.00;99201.42;1806720;77;21168;-88
2023/04/20 08:17:57;;;;;;;4.30;2.47;;;;;;;14.11;100.00;99200.12;1808719;78;21151;-79
2023/04/20 08:21:04;;;;;;;4.35;2.00;;;;;;;14.02;100.00;99199.56;1808832;78;21132;-79
2023/04/20 08:24:09;;;;;;;4.40;1.62;;;;;;;14.31;100.00;99193.91;1809321;78;21116;-79
2023/04/20 08:27:16;;;;;;;3.22;1.92;;;;;;;14.55;100.00;99192.19;1810063;78;21131;-79
2023/04/20 08:30:15;;;;;;;6.60;2.10;;;;;;;14.52;100.00;99190.72;1804233;78;21124;-80
2023/04/20 08:33:21;;;;;;;5.17;1.92;;;;;;;14.63;100.00;99197.91;1810073;76;21138;-86
2023/04/20 08:36:26;;;;;;;5.85;2.35;;;;;;;14.61;100.00;99209.16;1833093;78;21129;-86
2023/04/20 08:39:31;;;;;;;8.98;2.37;;;;;;;14.64;100.00;99209.24;1806604;78;21148;-80
2023/04/20 08:42:36;;;;;;;7.50;2.52;;;;;;;14.82;99.23;99210.08;1826081;77;21137;-79
2023/04/20 08:45:41;;;;;;;9.93;2.20;;;;;;;14.83;97.96;99218.63;1829766;78;21133;-86
2023/04/20 08:48:47;;;;;;;10.60;2.12;;;;;;;14.82;97.76;99218.34;1824261;78;21125;-86
2023/04/20 08:51:53;;;;;;;6.60;2.40;;;;;;;14.80;96.48;99218.25;1822179;78;22025;-86
2023/04/20 08:54:59;;;;;;;5.83;2.12;;;;;;;14.78;96.60;99216.27;1821734;78;21204;-80
2023/04/20 08:58:05;;;;;;;7.50;2.50;;;;;;;14.80;96.88;99222.38;1819505;78;21742;-79
2023/04/20 09:01:11;;;;;;;9.55;2.00;;;;;;;14.81;96.50;99222.67;1817758;78;21145;-80
2023/04/20 09:04:32;;;;;;;7.78;2.30;;;;;;;15.03;94.92;99232.14;1834439;78;21129;-80
2023/04/20 09:07:37;;;;;;;6.72;2.65;;;;;;;15.03;94.87;99233.52;1823409;78;21165;-85
2023/04/20 09:10:50;;;;;;;6.30;2.60;;;;;;;15.27;94.12;99237.23;1822428;78;21162;-80
2023/04/20 09:14:15;;;;;;;12.45;2.70;;;;;;;15.34;92.88;99235.78;1817426;78;21153;-87
2023/04/20 09:17:18;;;;;;;7.87;2.85;;;;;;;15.17;93.19;99240.23;1813994;78;21191;-80
2023/04/20 09:20:26;;;;;;;14.35;2.65;;;;;;;15.19;93.22;99247.72;1822198;78;21146;-79
2023/04/20 09:23:31;;;;;;;6.12;2.52;;;;;;;15.01;92.53;99241.19;1826522;78;21171;-86
2023/04/20 09:26:38;;;;;;;9.03;2.35;;;;;;;14.88;94.59;99239.97;1829185;78;21148;-79
2023/04/20 09:29:44;;;;;;;12.03;2.42;;;;;;;14.92;94.25;99237.06;1821457;78;21180;-87
2023/04/20 09:32:54;;;;;;;7.67;2.87;;;;;;;15.04;92.87;99231.61;1818828;78;21133;-86
2023/04/20 09:35:59;;;;;;;10.80;2.33;;;;;;;14.92;92.78;99232.09;1815543;78;21794;-86
2023/04/20 09:39:23;;;;;;;10.90;3.30;;;;;;;14.75;92.87;99226.36;1821877;78;21140;-86
2023/04/20 09:42:28;;;;;;;6.15;2.87;;;;;;;14.66;92.69;99217.56;1818928;78;21153;-80
2023/04/20 09:45:34;;;;;;;11.03;3.87;;;;;;;14.55;93.76;99212.30;1800407;79;21154;-80
2023/04/20 09:48:42;;;;;;;19.20;4.15;;;;;;;14.37;95.05;99205.37;1802337;79;21172;-80
2023/04/20 09:51:49;;;;;;;14.13;4.40;;;;;;;14.26;96.14;99203.38;1808347;77;21165;-79
2023/04/20 09:54:54;;;;;;;17.37;4.42;;;;;;;14.36;96.87;99194.60;1777059;80;21161;-85
2023/04/20 09:57:59;;;;;;;18.27;4.33;;;;;;;14.45;97.55;99198.20;1796493;79;21172;-87
2023/04/20 10:01:04;;;;;;;15.63;4.30;;;;;;;14.29;98.18;99196.86;1803255;77;21140;-80
2023/04/20 10:04:15;;;;;;;18.00;4.75;;;;;;;14.38;97.65;99198.78;1804409;77;21141;-79
2023/04/20 10:07:26;;;;;;;12.43;3.70;;;;;;;14.40;99.46;99202.70;1798016;79;21532;-80
2023/04/20 10:10:31;;;;;;;16.77;3.90;;;;;;;14.60;99.00;99201.14;1811709;77;21157;-81
2023/04/20 10:13:40;;;;;;;18.20;3.95;;;;;;;14.78;97.12;99202.51;1810617;79;21702;-79
2023/04/20 10:16:46;;;;;;;14.73;3.87;;;;;;;14.78;95.37;99206.09;1805311;79;21161;-80
2023/04/20 10:19:51;;;;;;;19.55;4.83;;;;;;;14.70;95.39;99214.66;1805977;79;21133;-79
2023/04/20 10:23:01;;;;;;;14.50;3.80;;;;;;;14.61;95.73;99217.41;1810385;79;21156;-87
2023/04/20 10:26:22;;;;;;;12.10;3.85;;;;;;;14.63;96.10;99214.42;1808297;77;21172;-82
2023/04/20 10:29:36;;;;;;;10.23;4.00;;;;;;;14.60;96.10;99217.64;1797526;79;21764;-83
2023/04/20 10:32:41;;;;;;;17.20;4.30;;;;;;;14.45;96.16;99217.99;1800586;79;21141;-80
2023/04/20 10:36:01;;;;;;;18.15;4.53;;;;;;;14.22;96.57;99225.52;1808700;77;21120;-79
2023/04/20 10:39:08;;;;;;;20.27;4.35;;;;;;;14.10;96.68;99221.28;1798309;79;21160;-87
2023/04/20 10:42:15;;;;;;;14.00;4.08;;;;;;;14.22;96.86;99233.77;1814044;77;21124;-86
2023/04/20 10:45:21;;;;;;;10.45;4.30;;;;;;;14.35;95.69;99241.03;1800022;78;21693;-79
2023/04/20 10:48:28;;;;;;;16.62;4.47;;;;;;;14.33;96.99;99242.11;1805155;78;21138;-79
2023/04/20 10:51:35;;;;;;;8.90;3.47;;;;;;;14.52;97.19;99245.75;1828451;77;21202;-86
2023/04/20 10:54:46;;;;;;;16.35;4.83;;;;;;;14.44;95.02;99252.89;1827976;77;21780;-79
2023/04/20 10:57:53;;;;;;;17.35;4.17;;;;;;;14.39;93.95;99247.23;1832931;77;21167;-79
2023/04/20 11:01:06;;;;;;;18.70;5.37;;;;;;;14.32;94.48;99245.09;1793048;79;21761;-86
2023/04/20 11:04:12;;;;;;;16.60;4.92;;;;;;;14.32;95.19;99245.09;1816893;78;21799;-79
2023/04/20 11:07:19;;;;;;;13.55;4.87;;;;;;;14.48;95.00;99244.52;1811320;78;21165;-86
2023/04/20 11:10:25;;;;;;;13.85;5.60;;;;;;;14.56;95.35;99244.77;1807237;78;21197;-87
2023/04/20 11:13:33;;;;;;;16.95;4.30;;;;;;;14.69;95.66;99243.26;1807257;78;21239;-79
2023/04/20 11:16:39;;;;;;;14.50;5.12;;;;;;;14.78;94.56;99236.92;1811667;78;21168;-86
2023/04/20 11:19:47;;;;;;;11.20;3.87;;;;;;;14.83;93.51;99246.70;1811578;78;21172;-79
2023/04/20 11:22:58;;;;;;;11.25;4.60;;;;;;;14.84;92.99;99244.25;1821082;78;21140;-79
2023/04/20 11:26:05;;;;;;;12.90;3.87;;;;;;;14.94;93.21;99241.79;1818438;78;21183;-80
2023/04/20 11:29:11;;;;;;;17.80;5.12;;;;;;;15.06;91.91;99239.12;1823407;78;21187;-87
2023/04/20 11:32:17;;;;;;;17.37;5.12;;;;;;;15.11;91.75;99243.93;1812052;78;21450;-81
2023/04/20 11:35:23;;;;;;;11.25;4.70;;;;;;;15.01;92.54;99233.47;1814453;78;21160;-86
2023/04/20 11:38:40;;;;;;;12.95;4.72;;;;;;;15.05;92.39;99229.98;1816236;78;21154;-87
2023/04/20 11:41:45;;;;;;;8.95;4.58;;;;;;;15.10;92.54;99222.41;1808865;78;21681;-80
2023/04/20 11:44:52;;;;;;;10.98;4.28;;;;;;;15.22;91.34;99223.31;1814210;78;21172;-87
2023/04/20 11:47:58;;;;;;;17.92;4.42;;;;;;;15.32;91.98;99217.24;1790084;79;22057;-87
2023/04/20 11:51:05;;;;;;;15.65;4.58;;;;;;;15.40;91.12;99208.66;1789237;78;21193;-87
2023/04/20 11:54:11;;;;;;;19.60;3.67;;;;;;;15.50;90.81;99209.47;1792750;78;21226;-79
2023/04/20 11:57:20;;;;;;;10.63;4.03;;;;;;;15.49;88.44;99207.25;1785539;78;21140;-87
2023/04/20 12:00:24;;;;;;;12.20;3.65;;;;;;;15.53;88.24;99197.98;1788627;79;21182;-85
2023/04/20 12:03:31;;;;;;;7.17;3.10;;;;;;;15.68;88.27;99201.70;1789017;79;21186;-78
2023/04/20 12:06:37;;;;;;;9.20;3.30;;;;;;;15.63;87.12;99193.27;1791578;78;21171;-79
2023/04/20 12:09:44;;;;;;;10.88;3.70;;;;;;;15.56;86.84;99198.33;1790483;80;21206;-79
2023/04/20 12:12:51;;;;;;;6.55;3.12;;;;;;;15.54;86.74;99207.38;1790077;79;21167;-79
2023/04/20 12:15:58;;;;;;;10.30;3.90;;;;;;;15.35;87.03;99200.26;1789539;78;21161;-80
2023/04/20 12:19:04;;;;;;;10.32;4.10;;;;;;;15.28;87.66;99193.45;1790447;79;21195;-87
2023/04/20 12:22:11;;;;;;;15.18;3.47;;;;;;;15.25;87.79;99193.09;1791517;78;21758;-80
2023/04/20 12:25:16;;;;;;;13.48;3.47;;;;;;;15.15;87.41;99192.28;1794123;78;21726;-88
2023/04/20 12:28:22;;;;;;;11.03;3.40;;;;;;;15.06;88.31;99197.81;1791672;78;21159;-87
2023/04/20 12:31:28;;;;;;;7.72;2.83;;;;;;;14.98;88.20;99196.74;1791895;78;21132;-80
2023/04/20 12:34:35;;;;;;;12.78;3.72;;;;;;;14.94;88.57;99199.11;1798895;78;22053;-86
2023/04/20 12:37:41;;;;;;;9.95;3.35;;;;;;;14.95;88.99;99198.03;1788747;78;21162;-79
2023/04/20 12:40:47;;;;;;;16.42;3.35;;;;;;;14.89;88.33;99187.95;1790170;80;21139;-79
2023/04/20 12:43:46;;;;;;;10.43;3.00;;;;;;;14.56;89.58;99187.83;1789198;79;21182;-79
2023/04/20 12:46:50;;;;;;;8.33;3.80;;;;;;;14.43;90.80;99189.31;1798830;78;21916;-87
2023/04/20 12:49:56;;;;;;;6.53;3.15;;;;;;;14.33;91.07;99185.72;1812861;78;21172;-85
2023/04/20 12:53:01;;;;;;;10.68;3.30;;;;;;;14.56;91.06;99185.61;1808581;78;21180;-86
2023/04/20 12:55:54;;;;;;;9.23;3.05;;;;;;;14.39;91.70;99185.33;1808660;78;21128;-79
2023/04/20 12:58:41;;;;;;;6.55;2.47;;;;;;;14.41;91.93;99181.84;1811565;78;21158;-87
2023/04/20 13:01:33;;;;;;;8.78;2.87;;;;;;;14.37;92.09;99186.65;1803900;78;21164;-80
2023/04/20 13:04:20;;;;;;;11.90;3.08;;;;;;;14.46;91.67;99187.48;1811999;78;21173;-87
2023/04/20 13:07:13;;;;;;;5.28;2.20;;;;;;;14.41;91.96;99183.75;1804190;78;21183;-87
2023/04/20 13:10:18;;;;;;;7.62;2.42;;;;;;;14.47;92.02;99180.91;1813253;78;21153;-86
2023/04/20 13:13:23;;;;;;;9.53;2.25;;;;;;;14.52;91.78;99186.59;1808550;78;21137;-87
2023/04/20 13:16:29;;;;;;;8.30;2.00;;;;;;;14.45;92.24;99187.19;1808381;78;21140;-87
2023/04/20 13:19:36;;;;;;;4.35;2.05;;;;;;;14.46;91.38;99180.61;1808856;78;21548;-79
2023/04/20 13:22:42;;;;;;;8.40;2.20;;;;;;;14.31;92.18;99175.49;1808848;78;21164;-87
2023/04/20 13:25:50;;;;;;;4.15;1.92;;;;;;;14.23;92.27;99170.81;1808691;78;21110;-80
2023/04/20 13:28:57;;;;;;;7.22;2.08;;;;;;;14.30;92.05;99172.95;1813253;78;21145;-87
2023/04/20 13:32:02;;;;;;;2.92;1.72;;;;;;;14.32;92.72;99163.41;1811004;78;21766;-80
2023/04/20 13:35:11;;;;;;;3.70;2.00;;;;;;;14.28;92.69;99165.47;1811475;78;21676;-88
2023/04/20 13:38:16;;;;;;;3.72;1.90;;;;;;;14.28;92.24;99165.47;1812590;78;21144;-87
2023/04/20 13:41:24;;;;;;;4.12;2.35;;;;;;;14.13;92.49;99172.72;1809620;78;21146;-81
2023/04/20 13:44:29;;;;;;;3.62;2.50;;;;;;;14.04;94.14;99168.03;1808165;78;21702;-80
2023/04/20 13:47:35;;;;;;;3.45;2.52;;;;;;;14.07;94.32;99169.51;1808252;78;21170;-79
2023/04/20 13:50:40;;;;;;;4.28;2.12;;;;;;;13.99;96.15;99172.00;1808664;79;21711;-89
2023/04/20 13:53:49;;;;;;;6.55;2.77;;;;;;;14.09;95.39;99166.52;1804494;79;21141;-88
2023/04/20 13:56:54;;;;;;;7.70;3.17;;;;;;;14.00;95.34;99166.80;1801321;79;21156;-81
2023/04/20 14:00:00;;;;;;;5.65;2.87;;;;;;;13.96;95.28;99171.07;1803413;79;21144;-88
2023/04/20 14:03:04;;;;;;;4.08;2.75;;;;;;;13.91;95.58;99163.20;1801738;79;21140;-88
2023/04/20 14:06:10;;;;;;;4.65;3.02;;;;;;;13.78;95.86;99162.27;1808422;79;21142;-88
2023/04/20 14:09:16;;;;;;;5.90;2.90;;;;;;;13.80;95.72;99161.50;1808407;79;21163;-81
2023/04/20 14:12:23;;;;;;;8.25;2.60;;;;;;;13.79;95.56;99159.83;1799084;79;21152;-87
2023/04/20 14:15:28;;;;;;;7.30;2.92;;;;;;;13.92;95.27;99162.96;1802081;79;21213;-87